createdAt,value
2017-07-14T00:00:49.430Z,17.20
2017-07-14T00:03:16.884Z,17.20
2017-07-14T00:05:44.363Z,17.20
2017-07-14T00:08:11.818Z,17.10
2017-07-14T00:10:39.295Z,17.10
2017-07-14T00:13:06.730Z,17.00
2017-07-14T00:15:34.167Z,17.00
2017-07-14T00:18:01.655Z,16.90
2017-07-14T00:20:29.102Z,16.90
2017-07-14T00:22:56.548Z,16.90
2017-07-14T00:25:24.601Z,16.80
2017-07-14T00:27:52.046Z,16.80
2017-07-14T00:30:19.903Z,16.70
2017-07-14T00:32:47.371Z,16.70
2017-07-14T00:35:14.865Z,16.70
2017-07-14T00:37:42.307Z,16.60
2017-07-14T00:40:09.752Z,16.60
2017-07-14T00:42:37.233Z,16.60
2017-07-14T00:45:04.691Z,16.60
2017-07-14T00:47:32.139Z,16.50
2017-07-14T00:49:59.623Z,16.50
2017-07-14T00:52:27.075Z,16.50
2017-07-14T00:54:54.965Z,16.40
2017-07-14T00:57:22.453Z,16.40
2017-07-14T00:59:49.951Z,16.40
2017-07-14T01:02:17.836Z,16.40
2017-07-14T01:04:46.295Z,16.30
2017-07-14T01:07:13.963Z,16.30
2017-07-14T01:09:41.413Z,16.30
2017-07-14T01:12:08.866Z,16.20
2017-07-14T01:14:36.347Z,16.20
2017-07-14T01:17:04.159Z,16.20
2017-07-14T01:19:31.617Z,16.20
2017-07-14T01:21:59.110Z,16.20
2017-07-14T01:24:26.593Z,16.10
2017-07-14T01:26:54.043Z,16.10
2017-07-14T01:29:21.520Z,16.10
2017-07-14T01:31:49.605Z,16.10
2017-07-14T01:34:17.066Z,16.10
2017-07-14T01:36:44.551Z,16.00
2017-07-14T01:39:12.800Z,16.00
2017-07-14T01:41:40.997Z,16.00
2017-07-14T01:44:08.446Z,16.00
2017-07-14T01:46:35.896Z,16.00
2017-07-14T01:49:03.372Z,16.00
2017-07-14T01:51:30.822Z,15.90
2017-07-14T01:53:58.278Z,15.80
2017-07-14T01:56:25.751Z,15.80
2017-07-14T01:58:53.208Z,15.70
2017-07-14T02:01:20.685Z,15.70
2017-07-14T02:03:48.120Z,15.70
2017-07-14T02:06:15.571Z,15.70
2017-07-14T02:08:43.441Z,15.60
2017-07-14T02:11:11.284Z,15.50
2017-07-14T02:13:38.742Z,15.50
2017-07-14T02:16:06.225Z,15.50
2017-07-14T02:18:34.070Z,15.40
2017-07-14T02:21:01.697Z,15.50
2017-07-14T02:23:29.170Z,15.40
2017-07-14T02:25:56.633Z,15.40
2017-07-14T02:28:24.373Z,15.50
2017-07-14T02:30:52.245Z,15.50
2017-07-14T02:33:19.685Z,15.40
2017-07-14T02:35:47.256Z,15.40
2017-07-14T02:38:14.748Z,15.40
2017-07-14T02:40:42.386Z,15.50
2017-07-14T02:43:09.834Z,15.50
2017-07-14T02:45:37.277Z,15.50
2017-07-14T02:48:04.761Z,15.50
2017-07-14T02:50:32.205Z,15.50
2017-07-14T02:52:59.664Z,15.50
2017-07-14T02:55:27.169Z,15.50
2017-07-14T02:57:54.630Z,15.50
2017-07-14T03:00:22.937Z,15.50
2017-07-14T03:02:51.065Z,15.50
2017-07-14T03:05:18.560Z,15.60
2017-07-14T03:07:46.413Z,15.60
2017-07-14T03:10:13.861Z,15.60
2017-07-14T03:12:41.488Z,15.60
2017-07-14T03:15:08.925Z,15.60
2017-07-14T03:17:36.401Z,15.60
2017-07-14T03:20:03.918Z,15.60
2017-07-14T03:22:31.376Z,15.60
2017-07-14T03:24:58.836Z,15.60
2017-07-14T03:27:26.334Z,15.70
2017-07-14T03:29:53.990Z,15.70
2017-07-14T03:32:22.310Z,15.70
2017-07-14T03:34:49.780Z,15.70
2017-07-14T03:37:17.241Z,15.70
2017-07-14T03:39:44.713Z,15.70
2017-07-14T03:42:12.195Z,15.70
2017-07-14T03:44:39.731Z,15.70
2017-07-14T03:47:07.232Z,15.70
2017-07-14T03:49:34.668Z,15.70
2017-07-14T03:52:02.179Z,15.80
2017-07-14T03:54:29.637Z,15.70
2017-07-14T03:56:57.482Z,15.70
2017-07-14T03:59:24.962Z,15.70
2017-07-14T04:01:52.999Z,15.70
2017-07-14T04:04:20.452Z,15.70
2017-07-14T04:06:47.914Z,15.70
2017-07-14T04:09:15.395Z,15.70
2017-07-14T04:11:42.843Z,15.70
2017-07-14T04:14:10.285Z,15.70
2017-07-14T04:16:37.756Z,15.80
2017-07-14T04:19:05.344Z,15.80
2017-07-14T04:21:32.799Z,15.80
2017-07-14T04:24:00.280Z,15.80
2017-07-14T04:26:27.789Z,15.80
2017-07-14T04:28:55.248Z,15.80
2017-07-14T04:31:23.089Z,15.80
2017-07-14T04:33:50.548Z,15.80
2017-07-14T04:36:18.040Z,15.80
2017-07-14T04:38:45.545Z,15.80
2017-07-14T04:41:12.989Z,15.70
2017-07-14T04:43:40.435Z,15.80
2017-07-14T04:46:07.927Z,15.80
2017-07-14T04:48:35.365Z,15.80
2017-07-14T04:51:03.216Z,15.90
2017-07-14T04:53:30.705Z,15.90
2017-07-14T04:55:58.157Z,15.90
2017-07-14T04:58:25.993Z,16.00
2017-07-14T05:00:53.494Z,16.00
2017-07-14T05:03:21.984Z,16.10
2017-07-14T05:05:49.464Z,16.10
2017-07-14T05:08:17.407Z,16.10
2017-07-14T05:10:44.880Z,16.10
2017-07-14T05:13:12.380Z,16.20
2017-07-14T05:15:39.836Z,16.20
2017-07-14T05:18:07.288Z,16.20
2017-07-14T05:20:34.785Z,16.20
2017-07-14T05:23:02.241Z,16.20
2017-07-14T05:25:29.685Z,16.30
2017-07-14T05:27:57.181Z,16.30
2017-07-14T05:30:24.630Z,16.40
2017-07-14T05:32:52.096Z,16.30
2017-07-14T05:35:19.556Z,16.40
2017-07-14T05:37:47.001Z,16.40
2017-07-14T05:40:14.476Z,16.40
2017-07-14T05:42:41.924Z,16.40
2017-07-14T05:45:09.570Z,16.40
2017-07-14T05:47:37.022Z,16.40
2017-07-14T05:50:05.697Z,16.40
2017-07-14T05:52:33.596Z,16.40
2017-07-14T05:55:01.049Z,16.40
2017-07-14T05:57:28.897Z,16.30
2017-07-14T05:59:56.381Z,16.30
2017-07-14T06:02:23.831Z,16.20
2017-07-14T06:04:51.296Z,16.10
2017-07-14T06:07:18.790Z,16.00
2017-07-14T06:09:46.281Z,16.00
2017-07-14T06:12:13.730Z,15.90
2017-07-14T06:14:41.202Z,15.90
2017-07-14T06:17:09.613Z,16.00
2017-07-14T06:19:37.070Z,16.00
2017-07-14T06:22:04.512Z,16.10
2017-07-14T06:24:31.985Z,16.10
2017-07-14T06:26:59.429Z,16.10
2017-07-14T06:29:26.940Z,16.10
2017-07-14T06:31:54.380Z,16.20
2017-07-14T06:34:21.830Z,16.20
2017-07-14T06:36:49.506Z,16.20
2017-07-14T06:39:16.951Z,16.30
2017-07-14T06:41:45.185Z,16.40
2017-07-14T06:44:12.689Z,16.50
2017-07-14T06:46:40.147Z,16.50
2017-07-14T06:49:07.612Z,16.60
2017-07-14T06:51:35.250Z,16.70
2017-07-14T06:54:03.084Z,16.90
2017-07-14T06:56:30.533Z,17.00
2017-07-14T06:58:57.994Z,17.10
2017-07-14T07:01:25.438Z,17.20
2017-07-14T07:03:52.940Z,17.40
2017-07-14T07:06:20.392Z,17.50
2017-07-14T07:08:47.838Z,17.60
2017-07-14T07:11:15.352Z,17.60
2017-07-14T07:13:42.798Z,17.70
2017-07-14T07:16:10.238Z,17.80
2017-07-14T07:18:37.706Z,17.90
2017-07-14T07:21:05.235Z,17.90
2017-07-14T07:23:32.663Z,18.10
2017-07-14T07:26:00.101Z,18.20
2017-07-14T07:28:27.578Z,18.30
2017-07-14T07:30:55.040Z,18.50
2017-07-14T07:33:22.482Z,18.60
2017-07-14T07:35:50.135Z,18.70
2017-07-14T07:38:17.591Z,18.90
2017-07-14T07:40:45.047Z,19.00
2017-07-14T07:43:13.073Z,19.20
2017-07-14T07:45:40.919Z,19.30
2017-07-14T07:48:14.827Z,19.30
2017-07-14T07:50:42.286Z,19.50
2017-07-14T07:53:09.740Z,19.70
2017-07-14T07:55:37.220Z,19.80
2017-07-14T07:58:04.669Z,19.90
2017-07-14T08:00:32.163Z,20.10
2017-07-14T08:03:05.339Z,20.10
2017-07-14T08:05:32.987Z,20.20
2017-07-14T08:08:00.452Z,20.30
2017-07-14T08:10:27.909Z,20.30
2017-07-14T08:12:55.417Z,20.40
2017-07-14T08:15:23.271Z,20.50
2017-07-14T08:17:50.771Z,20.50
2017-07-14T08:20:18.282Z,20.50
2017-07-14T08:22:45.738Z,20.50
2017-07-14T08:25:14.018Z,20.60
2017-07-14T08:27:41.468Z,20.60
2017-07-14T08:30:08.927Z,20.50
2017-07-14T08:32:36.397Z,20.50
2017-07-14T08:35:03.869Z,20.40
2017-07-14T08:37:31.327Z,20.40
2017-07-14T08:39:58.793Z,20.40
2017-07-14T08:42:26.459Z,20.40
2017-07-14T08:44:53.913Z,20.30
2017-07-14T08:47:21.371Z,20.30
2017-07-14T08:49:49.365Z,20.30
2017-07-14T08:52:16.836Z,20.30
2017-07-14T08:54:44.329Z,20.40
2017-07-14T08:57:11.766Z,20.40
2017-07-14T08:59:39.205Z,20.50
2017-07-14T09:02:07.233Z,20.50
2017-07-14T09:04:35.705Z,20.50
2017-07-14T09:07:03.905Z,20.50
2017-07-14T09:09:31.412Z,20.50
2017-07-14T09:11:58.880Z,20.50
2017-07-14T09:14:26.352Z,20.50
2017-07-14T09:16:53.853Z,20.30
2017-07-14T09:19:21.719Z,20.20
2017-07-14T09:21:49.581Z,20.20
2017-07-14T09:24:17.204Z,20.20
2017-07-14T09:26:44.648Z,20.10
2017-07-14T09:29:12.083Z,20.00
2017-07-14T09:31:39.961Z,20.00
2017-07-14T09:34:07.406Z,20.00
2017-07-14T09:36:34.850Z,20.00
2017-07-14T09:39:02.310Z,20.00
2017-07-14T09:41:29.797Z,20.10
2017-07-14T09:43:57.243Z,20.10
2017-07-14T09:46:24.697Z,20.20
2017-07-14T09:48:52.321Z,20.30
2017-07-14T09:51:20.349Z,20.40
2017-07-14T09:53:47.807Z,20.60
2017-07-14T09:56:15.288Z,20.80
2017-07-14T09:58:43.152Z,20.90
2017-07-14T10:01:10.604Z,20.90
2017-07-14T10:03:38.082Z,21.00
2017-07-14T10:06:06.761Z,21.20
2017-07-14T10:08:34.200Z,21.20
2017-07-14T10:11:02.599Z,21.10
2017-07-14T10:13:30.081Z,21.20
2017-07-14T10:15:57.930Z,21.50
2017-07-14T10:18:25.435Z,21.50
2017-07-14T10:20:53.635Z,21.70
2017-07-14T10:23:21.080Z,21.70
2017-07-14T10:25:48.584Z,21.70
2017-07-14T10:28:16.076Z,21.50
2017-07-14T10:30:43.559Z,21.50
2017-07-14T10:33:11.438Z,21.40
2017-07-14T10:35:38.939Z,21.40
2017-07-14T10:38:06.477Z,21.40
2017-07-14T10:40:34.737Z,21.40
2017-07-14T10:43:02.260Z,21.40
2017-07-14T10:45:29.936Z,21.40
2017-07-14T10:47:57.404Z,21.40
2017-07-14T10:50:24.874Z,21.50
2017-07-14T10:52:52.514Z,21.60
2017-07-14T10:55:19.954Z,21.60
2017-07-14T10:57:47.403Z,21.70
2017-07-14T11:00:14.923Z,21.80
2017-07-14T11:02:42.385Z,21.90
2017-07-14T11:05:09.849Z,22.00
2017-07-14T11:07:37.351Z,22.00
2017-07-14T11:10:05.241Z,22.00
2017-07-14T11:12:32.744Z,22.00
2017-07-14T11:15:00.299Z,22.00
2017-07-14T11:17:29.459Z,22.10
2017-07-14T11:19:56.959Z,22.10
2017-07-14T11:22:25.883Z,22.00
2017-07-14T11:24:53.589Z,22.00
2017-07-14T11:27:21.765Z,22.00
2017-07-14T11:29:49.384Z,22.10
2017-07-14T11:32:16.913Z,22.20
2017-07-14T11:34:44.369Z,22.20
2017-07-14T11:37:12.110Z,22.20
2017-07-14T11:39:40.045Z,22.40
2017-07-14T11:42:07.593Z,22.40
2017-07-14T11:44:35.321Z,22.50
2017-07-14T11:47:02.851Z,22.70
2017-07-14T11:49:30.385Z,22.70
2017-07-14T11:51:57.946Z,22.80
2017-07-14T11:54:25.472Z,22.90
2017-07-14T11:56:53.381Z,23.00
2017-07-14T11:59:20.923Z,23.00
2017-07-14T12:01:48.378Z,23.20
2017-07-14T12:04:15.911Z,23.30
2017-07-14T12:06:47.206Z,23.30
2017-07-14T12:09:14.687Z,23.20
2017-07-14T12:11:42.202Z,23.20
2017-07-14T12:14:11.225Z,23.20
2017-07-14T12:16:39.168Z,23.20
2017-07-14T12:19:06.903Z,23.20
2017-07-14T12:21:34.519Z,23.20
2017-07-14T12:24:02.942Z,23.30
2017-07-14T12:26:30.493Z,23.40
2017-07-14T12:28:57.972Z,23.40
2017-07-14T12:31:25.459Z,23.40
2017-07-14T12:33:52.974Z,23.50
2017-07-14T12:36:20.417Z,23.60
2017-07-14T12:38:48.479Z,23.60
2017-07-14T12:41:16.091Z,23.70
2017-07-14T12:43:44.280Z,23.60
2017-07-14T12:46:12.132Z,23.70
2017-07-14T12:48:39.632Z,23.70
2017-07-14T12:51:07.305Z,23.70
2017-07-14T12:53:34.768Z,23.60
2017-07-14T12:56:02.254Z,23.50
2017-07-14T12:58:29.720Z,23.40
2017-07-14T13:00:57.178Z,23.40
2017-07-14T13:03:25.178Z,23.40
2017-07-14T13:05:52.802Z,23.40
2017-07-14T13:08:21.091Z,23.40
2017-07-14T13:10:49.340Z,23.40
2017-07-14T13:13:16.877Z,23.40
2017-07-14T13:15:44.482Z,23.50
2017-07-14T13:18:13.053Z,23.80
2017-07-14T13:20:40.511Z,23.80
2017-07-14T13:23:08.078Z,23.90
2017-07-14T13:25:35.641Z,24.00
2017-07-14T13:28:03.279Z,23.90
2017-07-14T13:30:30.830Z,23.90
2017-07-14T13:32:58.869Z,23.80
2017-07-14T13:35:26.355Z,23.80
2017-07-14T13:37:53.831Z,23.70
2017-07-14T13:40:21.315Z,23.70
2017-07-14T13:42:48.978Z,23.60
2017-07-14T13:45:17.045Z,23.50
2017-07-14T13:47:45.016Z,23.40
2017-07-14T13:50:14.443Z,23.50
2017-07-14T13:52:42.355Z,23.40
2017-07-14T13:55:11.411Z,23.40
2017-07-14T13:57:40.507Z,23.40
2017-07-14T14:00:10.070Z,23.60
2017-07-14T14:02:39.803Z,23.60
2017-07-14T14:05:07.454Z,23.70
2017-07-14T14:07:35.673Z,23.80
2017-07-14T14:10:11.517Z,23.80
2017-07-14T14:12:45.694Z,23.80
2017-07-14T14:15:13.215Z,23.80
2017-07-14T14:17:48.898Z,23.70
2017-07-14T14:20:16.657Z,23.70
2017-07-14T14:22:45.315Z,23.60
2017-07-14T14:25:14.801Z,23.50
2017-07-14T14:27:43.397Z,23.50
2017-07-14T14:30:11.262Z,23.40
2017-07-14T14:32:38.729Z,23.40
2017-07-14T14:35:06.329Z,23.40
2017-07-14T14:37:34.201Z,23.30
2017-07-14T14:40:01.858Z,23.30
2017-07-14T14:42:30.556Z,23.30
2017-07-14T14:44:59.945Z,23.30
2017-07-14T14:47:30.005Z,23.20
2017-07-14T14:49:57.516Z,23.30
2017-07-14T14:52:25.114Z,23.20
2017-07-14T14:54:52.570Z,23.20
2017-07-14T14:57:20.202Z,23.30
2017-07-14T14:59:47.828Z,23.30
2017-07-14T15:02:15.289Z,23.30
2017-07-14T15:04:42.748Z,23.40
2017-07-14T15:07:10.234Z,23.40
2017-07-14T15:09:37.694Z,23.30
2017-07-14T15:12:05.136Z,23.30
2017-07-14T15:14:32.644Z,23.30
2017-07-14T15:17:00.091Z,23.30
2017-07-14T15:19:27.581Z,23.30
2017-07-14T15:21:55.459Z,23.40
2017-07-14T15:24:22.917Z,23.40
2017-07-14T15:26:50.443Z,23.40
2017-07-14T15:29:17.928Z,23.40
2017-07-14T15:31:45.388Z,23.50
2017-07-14T15:34:12.858Z,23.50
2017-07-14T15:36:42.367Z,23.50
2017-07-14T15:39:09.912Z,23.60
2017-07-14T15:41:37.408Z,23.70
2017-07-14T15:44:05.276Z,23.80
2017-07-14T15:46:33.697Z,23.80
2017-07-14T15:49:01.540Z,23.80
2017-07-14T15:51:29.422Z,23.90
2017-07-14T15:53:57.355Z,24.00
2017-07-14T15:56:24.891Z,24.00
2017-07-14T15:58:52.365Z,24.00
2017-07-14T16:01:19.888Z,24.10
2017-07-14T16:03:47.727Z,24.20
2017-07-14T16:06:15.414Z,24.20
2017-07-14T16:08:43.307Z,24.20
2017-07-14T16:11:10.798Z,24.20
2017-07-14T16:13:38.282Z,24.20
2017-07-14T16:16:06.225Z,24.20
2017-07-14T16:18:33.767Z,24.30
2017-07-14T16:21:01.634Z,24.40
2017-07-14T16:23:29.649Z,24.40
2017-07-14T16:25:57.400Z,24.40
2017-07-14T16:28:24.851Z,24.50
2017-07-14T16:30:52.597Z,24.40
2017-07-14T16:33:20.451Z,24.30
2017-07-14T16:35:47.953Z,24.30
2017-07-14T16:38:15.661Z,24.20
2017-07-14T16:40:43.151Z,24.10
2017-07-14T16:43:10.709Z,24.00
2017-07-14T16:45:38.439Z,24.00
2017-07-14T16:48:06.000Z,23.90
2017-07-14T16:50:33.467Z,23.80
2017-07-14T16:53:02.017Z,23.80
2017-07-14T16:55:29.487Z,23.70
2017-07-14T16:57:57.012Z,23.80
2017-07-14T17:00:25.332Z,23.70
2017-07-14T17:02:52.806Z,23.70
2017-07-14T17:05:23.303Z,23.70
2017-07-14T17:07:50.870Z,23.60
2017-07-14T17:10:18.314Z,23.60
2017-07-14T17:12:45.963Z,23.50
2017-07-14T17:15:13.493Z,23.40
2017-07-14T17:17:41.013Z,23.30
2017-07-14T17:20:08.770Z,22.90
2017-07-14T17:22:36.319Z,22.30
2017-07-14T17:25:04.236Z,21.90
2017-07-14T17:27:31.780Z,21.50
2017-07-14T17:29:59.365Z,20.90
2017-07-14T17:32:26.812Z,20.50
2017-07-14T17:34:57.246Z,20.20
2017-07-14T17:37:25.195Z,19.70
2017-07-14T17:39:53.613Z,19.50
2017-07-14T17:42:21.592Z,19.30
2017-07-14T17:44:49.048Z,19.30
2017-07-14T17:47:17.027Z,19.20
2017-07-14T17:49:44.505Z,19.20
2017-07-14T17:52:12.543Z,18.90
2017-07-14T17:54:40.039Z,18.90
2017-07-14T17:57:07.484Z,18.90
2017-07-14T17:59:35.003Z,18.80
2017-07-14T18:02:03.122Z,18.80
2017-07-14T18:04:30.638Z,18.60
2017-07-14T18:06:58.086Z,18.50
2017-07-14T18:09:25.572Z,18.40
2017-07-14T18:11:53.064Z,18.50
2017-07-14T18:14:21.305Z,18.50
2017-07-14T18:16:49.671Z,18.50
2017-07-14T18:19:17.781Z,18.50
2017-07-14T18:21:45.337Z,18.50
2017-07-14T18:24:12.801Z,18.50
2017-07-14T18:26:40.269Z,18.50
2017-07-14T18:29:07.737Z,18.50
2017-07-14T18:31:35.264Z,18.50
2017-07-14T18:34:02.750Z,18.50
2017-07-14T18:36:32.602Z,18.50
2017-07-14T18:39:00.090Z,18.60
2017-07-14T18:41:27.560Z,18.50
2017-07-14T18:43:55.456Z,18.60
2017-07-14T18:46:22.901Z,18.60
2017-07-14T18:48:50.573Z,18.60
2017-07-14T18:51:18.034Z,18.60
2017-07-14T18:53:45.519Z,18.60
2017-07-14T18:56:13.106Z,18.60
2017-07-14T18:58:40.599Z,18.60
2017-07-14T19:01:08.179Z,18.60
2017-07-14T19:03:35.651Z,18.60
2017-07-14T19:06:03.166Z,18.60
2017-07-14T19:08:30.703Z,18.60
2017-07-14T19:10:59.344Z,18.50
2017-07-14T19:13:26.911Z,18.40
2017-07-14T19:15:54.387Z,18.30
2017-07-14T19:18:23.382Z,18.30
2017-07-14T19:20:50.884Z,18.10
2017-07-14T19:23:18.335Z,18.10
2017-07-14T19:25:45.813Z,18.00
2017-07-14T19:28:13.449Z,18.00
2017-07-14T19:30:41.314Z,17.80
2017-07-14T19:33:09.179Z,17.80
2017-07-14T19:35:37.072Z,17.70
2017-07-14T19:38:04.543Z,17.80
2017-07-14T19:40:32.025Z,17.70
2017-07-14T19:43:00.040Z,17.70
2017-07-14T19:45:27.512Z,17.80
2017-07-14T19:47:54.975Z,17.80
2017-07-14T19:50:22.850Z,17.90
2017-07-14T19:52:50.718Z,17.90
2017-07-14T19:55:18.286Z,17.90
2017-07-14T19:57:45.840Z,17.90
2017-07-14T20:00:13.349Z,18.00
2017-07-14T20:02:40.799Z,18.00
2017-07-14T20:05:08.442Z,18.00
2017-07-14T20:07:35.904Z,17.80
2017-07-14T20:10:03.352Z,17.90
2017-07-14T20:12:30.988Z,17.90
2017-07-14T20:14:58.496Z,17.90
2017-07-14T20:17:26.037Z,17.90
2017-07-14T20:19:53.570Z,17.90
2017-07-14T20:22:21.033Z,17.90
2017-07-14T20:24:48.489Z,17.90
2017-07-14T20:27:15.957Z,17.90
2017-07-14T20:29:43.477Z,17.90
2017-07-14T20:32:11.043Z,18.00
2017-07-14T20:34:38.548Z,17.90
2017-07-14T20:37:06.006Z,17.90
2017-07-14T20:39:33.470Z,17.90
2017-07-14T20:42:00.942Z,17.80
2017-07-14T20:44:28.396Z,17.80
2017-07-14T20:46:55.896Z,17.70
2017-07-14T20:49:23.372Z,17.80
2017-07-14T20:51:50.868Z,17.70
2017-07-14T20:54:18.663Z,17.60
2017-07-14T20:56:47.077Z,17.50
2017-07-14T20:59:14.600Z,17.40
2017-07-14T21:01:42.047Z,17.50
2017-07-14T21:04:09.526Z,17.50
2017-07-14T21:06:37.028Z,17.50
2017-07-14T21:09:04.501Z,17.50
2017-07-14T21:11:31.988Z,17.50
2017-07-14T21:13:59.860Z,17.60
2017-07-14T21:16:29.652Z,17.60
2017-07-14T21:18:57.144Z,17.60
2017-07-14T21:21:24.611Z,17.70
2017-07-14T21:23:52.060Z,17.60
2017-07-14T21:26:19.928Z,17.70
2017-07-14T21:28:47.430Z,17.70
2017-07-14T21:31:14.905Z,17.80
2017-07-14T21:33:42.370Z,17.70
2017-07-14T21:36:18.877Z,17.70
2017-07-14T21:38:46.338Z,17.70
2017-07-14T21:41:13.805Z,17.60
2017-07-14T21:43:41.325Z,17.70
2017-07-14T21:46:09.465Z,17.70
2017-07-14T21:48:36.910Z,17.70
2017-07-14T21:51:04.400Z,17.70
2017-07-14T21:53:31.921Z,17.70
2017-07-14T21:55:59.383Z,17.70
2017-07-14T21:58:26.840Z,17.60
2017-07-14T22:00:55.204Z,17.60
2017-07-14T22:03:22.701Z,17.50
2017-07-14T22:05:50.181Z,17.40
2017-07-14T22:08:18.032Z,17.30
2017-07-14T22:10:45.507Z,17.30
2017-07-14T22:13:13.586Z,17.30
2017-07-14T22:15:41.066Z,17.30
2017-07-14T22:18:08.521Z,17.20
2017-07-14T22:20:36.171Z,17.20
2017-07-14T22:23:03.628Z,17.20
2017-07-14T22:25:31.150Z,17.20
2017-07-14T22:27:58.643Z,17.20
2017-07-14T22:30:26.109Z,17.20
2017-07-14T22:32:53.558Z,17.10
2017-07-14T22:35:21.177Z,17.10
2017-07-14T22:37:48.673Z,17.00
2017-07-14T22:40:16.123Z,17.00
2017-07-14T22:42:43.632Z,17.00
2017-07-14T22:45:11.093Z,17.00
2017-07-14T22:47:38.549Z,17.00
2017-07-14T22:50:06.021Z,17.00
2017-07-14T22:52:34.096Z,16.90
2017-07-14T22:55:01.561Z,16.90
2017-07-14T22:57:29.035Z,16.80
2017-07-14T22:59:56.480Z,16.80
2017-07-14T23:02:23.976Z,16.70
2017-07-14T23:04:51.823Z,16.60
2017-07-14T23:07:19.316Z,16.60
2017-07-14T23:09:46.844Z,16.50
2017-07-14T23:12:14.309Z,16.50
2017-07-14T23:14:41.776Z,16.40
2017-07-14T23:17:09.277Z,16.30
2017-07-14T23:19:36.749Z,16.30
2017-07-14T23:22:04.193Z,16.20
2017-07-14T23:24:31.692Z,16.30
2017-07-14T23:26:59.150Z,16.30
2017-07-14T23:29:26.605Z,16.20
2017-07-14T23:31:54.120Z,16.30
2017-07-14T23:34:21.579Z,16.30
2017-07-14T23:36:49.020Z,16.20
2017-07-14T23:39:16.495Z,16.10
2017-07-14T23:41:43.963Z,16.10
2017-07-14T23:44:11.417Z,16.00
2017-07-14T23:46:38.922Z,15.90
2017-07-14T23:49:06.381Z,15.90
2017-07-14T23:51:33.824Z,15.90
2017-07-14T23:54:01.300Z,15.90
2017-07-14T23:56:29.175Z,15.90
2017-07-14T23:58:57.077Z,15.90
